createdAt,value
2017-11-10T00:00:12.226Z,98093.60
2017-11-10T00:00:43.874Z,98088.05
2017-11-10T00:01:15.518Z,98090.18
2017-11-10T00:01:47.416Z,98090.18
2017-11-10T00:02:19.082Z,98092.30
2017-11-10T00:02:50.912Z,98088.48
2017-11-10T00:03:22.563Z,98091.91
2017-11-10T00:03:54.241Z,98088.91
2017-11-10T00:04:25.890Z,98080.02
2017-11-10T00:04:57.538Z,98085.92
2017-11-10T00:05:29.181Z,98082.88
2017-11-10T00:06:00.826Z,98089.64
2017-11-10T00:06:32.470Z,98082.81
2017-11-10T00:07:04.353Z,98084.45
2017-11-10T00:07:36.118Z,98087.86
2017-11-10T00:08:08.068Z,98087.38
2017-11-10T00:08:39.717Z,98086.10
2017-11-10T00:09:11.382Z,98082.69
2017-11-10T00:09:43.301Z,98081.84
2017-11-10T00:10:14.946Z,98086.09
2017-11-10T00:10:46.598Z,98084.41
2017-11-10T00:11:18.246Z,98076.36
2017-11-10T00:11:49.913Z,98081.47
2017-11-10T00:12:21.566Z,98082.28
2017-11-10T00:12:53.214Z,98076.85
2017-11-10T00:13:24.861Z,98077.22
2017-11-10T00:13:56.593Z,98077.27
2017-11-10T00:14:28.384Z,98076.80
2017-11-10T00:15:00.038Z,98077.22
2017-11-10T00:15:31.682Z,98086.16
2017-11-10T00:16:03.325Z,98076.80
2017-11-10T00:16:34.975Z,98071.27
2017-11-10T00:17:06.618Z,98076.00
2017-11-10T00:17:38.270Z,98076.00
2017-11-10T00:18:09.915Z,98073.45
2017-11-10T00:18:41.741Z,98073.88
2017-11-10T00:19:13.440Z,98071.74
2017-11-10T00:19:45.117Z,98070.45
2017-11-10T00:20:16.761Z,98071.73
2017-11-10T00:20:48.406Z,98067.06
2017-11-10T00:21:20.051Z,98062.79
2017-11-10T00:21:51.694Z,98067.00
2017-11-10T00:22:23.337Z,98066.13
2017-11-10T00:22:54.983Z,98067.04
2017-11-10T00:23:26.638Z,98064.92
2017-11-10T00:23:58.286Z,98061.14
2017-11-10T00:24:30.202Z,98064.08
2017-11-10T00:25:02.035Z,98067.91
2017-11-10T00:25:33.787Z,98061.03
2017-11-10T00:26:05.434Z,98065.77
2017-11-10T00:26:37.134Z,98058.48
2017-11-10T00:27:09.019Z,98067.84
2017-11-10T00:27:40.890Z,98064.00
2017-11-10T00:28:12.609Z,98065.72
2017-11-10T00:28:44.558Z,98059.69
2017-11-10T00:29:16.209Z,98063.52
2017-11-10T00:29:47.856Z,98064.80
2017-11-10T00:30:19.502Z,98063.11
2017-11-10T00:30:51.381Z,98063.57
2017-11-10T00:31:23.034Z,98060.19
2017-11-10T00:31:54.714Z,98064.87
2017-11-10T00:32:26.551Z,98069.55
2017-11-10T00:32:58.309Z,98068.26
2017-11-10T00:33:30.006Z,98063.57
2017-11-10T00:34:01.655Z,98066.98
2017-11-10T00:34:33.541Z,98063.58
2017-11-10T00:35:05.418Z,98067.36
2017-11-10T00:35:37.061Z,98065.27
2017-11-10T00:36:08.705Z,98065.29
2017-11-10T00:36:40.346Z,98066.14
2017-11-10T00:37:11.996Z,98063.16
2017-11-10T00:37:43.644Z,98060.19
2017-11-10T00:38:15.343Z,98060.61
2017-11-10T00:38:47.291Z,98061.47
2017-11-10T00:39:18.942Z,98061.08
2017-11-10T00:39:50.593Z,98069.13
2017-11-10T00:40:22.238Z,98055.48
2017-11-10T00:40:53.883Z,98055.93
2017-11-10T00:41:25.527Z,98049.14
2017-11-10T00:41:57.180Z,98051.70
2017-11-10T00:42:28.835Z,98046.12
2017-11-10T00:43:00.487Z,98053.78
2017-11-10T00:43:32.182Z,98042.75
2017-11-10T00:44:03.873Z,98046.98
2017-11-10T00:44:35.518Z,98046.12
2017-11-10T00:45:07.170Z,98042.72
2017-11-10T00:45:38.943Z,98046.54
2017-11-10T00:46:10.787Z,98046.96
2017-11-10T00:46:42.534Z,98046.98
2017-11-10T00:47:14.182Z,98045.27
2017-11-10T00:47:45.887Z,98042.33
2017-11-10T00:48:17.768Z,98045.32
2017-11-10T00:48:49.603Z,98045.32
2017-11-10T00:49:21.358Z,98044.42
2017-11-10T00:49:53.010Z,98045.77
2017-11-10T00:50:24.655Z,98047.83
2017-11-10T00:50:56.323Z,98047.39
2017-11-10T00:51:27.966Z,98053.78
2017-11-10T00:51:59.615Z,98043.14
2017-11-10T00:52:31.266Z,98049.16
2017-11-10T00:53:03.158Z,98053.84
2017-11-10T00:53:34.818Z,98049.14
2017-11-10T00:54:06.465Z,98043.14
2017-11-10T00:54:38.111Z,98048.30
2017-11-10T00:55:09.758Z,98042.72
2017-11-10T00:55:41.398Z,98044.41
2017-11-10T00:56:13.046Z,98048.67
2017-11-10T00:56:44.690Z,98043.97
2017-11-10T00:57:16.334Z,98039.24
2017-11-10T00:57:47.986Z,98037.53
2017-11-10T00:58:19.834Z,98038.80
2017-11-10T00:58:51.534Z,98043.42
2017-11-10T00:59:23.182Z,98041.72
2017-11-10T00:59:54.834Z,98042.14
2017-11-10T01:00:26.496Z,98040.07
2017-11-10T01:00:58.143Z,98040.09
2017-11-10T01:01:29.795Z,98035.83
2017-11-10T01:02:01.686Z,98036.25
2017-11-10T01:02:33.337Z,98041.41
2017-11-10T01:03:04.988Z,98031.57
2017-11-10T01:03:36.634Z,98034.98
2017-11-10T01:04:08.508Z,98034.13
2017-11-10T01:04:40.158Z,98033.70
2017-11-10T01:05:11.844Z,98036.73
2017-11-10T01:05:43.498Z,98032.11
2017-11-10T01:06:15.147Z,98038.87
2017-11-10T01:06:46.796Z,98041.00
2017-11-10T01:07:18.434Z,98039.78
2017-11-10T01:07:50.082Z,98038.09
2017-11-10T01:08:21.730Z,98036.80
2017-11-10T01:08:53.374Z,98035.52
2017-11-10T01:09:25.017Z,98044.48
2017-11-10T01:09:56.667Z,98035.52
2017-11-10T01:10:28.318Z,98035.11
2017-11-10T01:10:59.962Z,98037.23
2017-11-10T01:11:31.853Z,98032.97
2017-11-10T01:12:03.503Z,98037.23
2017-11-10T01:12:35.166Z,98032.98
2017-11-10T01:13:06.810Z,98027.92
2017-11-10T01:13:38.729Z,98030.42
2017-11-10T01:14:10.377Z,98035.95
2017-11-10T01:14:42.034Z,98028.30
2017-11-10T01:15:13.683Z,98033.33
2017-11-10T01:15:45.325Z,98035.05
2017-11-10T01:16:16.965Z,98032.91
2017-11-10T01:16:48.888Z,98033.33
2017-11-10T01:17:20.537Z,98029.48
2017-11-10T01:17:52.481Z,98034.55
2017-11-10T01:18:24.139Z,98030.70
2017-11-10T01:18:55.990Z,98026.45
2017-11-10T01:19:27.634Z,98028.58
2017-11-10T01:19:59.276Z,98035.45
2017-11-10T01:20:30.918Z,98028.22
2017-11-10T01:21:02.839Z,98024.81
2017-11-10T01:21:34.586Z,98027.81
2017-11-10T01:22:06.381Z,98028.70
2017-11-10T01:22:38.030Z,98029.15
2017-11-10T01:23:09.819Z,98024.88
2017-11-10T01:23:41.651Z,98026.17
2017-11-10T01:24:13.410Z,98020.67
2017-11-10T01:24:45.358Z,98028.41
2017-11-10T01:25:17.007Z,98028.41
2017-11-10T01:25:48.657Z,98022.83
2017-11-10T01:26:20.306Z,98018.60
2017-11-10T01:26:51.954Z,98012.59
2017-11-10T01:27:23.603Z,98015.56
2017-11-10T01:27:55.245Z,98012.08
2017-11-10T01:28:26.897Z,98012.08
2017-11-10T01:28:58.610Z,98022.31
2017-11-10T01:29:30.258Z,98018.47
2017-11-10T01:30:01.901Z,98020.55
2017-11-10T01:30:33.546Z,98013.36
2017-11-10T01:31:05.189Z,98021.40
2017-11-10T01:31:36.830Z,98020.98
2017-11-10T01:32:08.469Z,98016.34
2017-11-10T01:32:40.110Z,98014.63
2017-11-10T01:33:11.753Z,98016.77
2017-11-10T01:33:43.406Z,98015.08
2017-11-10T01:34:15.274Z,98012.09
2017-11-10T01:34:46.918Z,98011.30
2017-11-10T01:35:18.811Z,98015.08
2017-11-10T01:35:50.461Z,98013.80
2017-11-10T01:36:22.101Z,98010.39
2017-11-10T01:36:53.742Z,98012.52
2017-11-10T01:37:25.386Z,98008.69
2017-11-10T01:37:57.034Z,98008.33
2017-11-10T01:38:28.681Z,98014.24
2017-11-10T01:39:00.326Z,98012.16
2017-11-10T01:39:32.254Z,98010.88
2017-11-10T01:40:03.906Z,98011.33
2017-11-10T01:40:35.553Z,98013.51
2017-11-10T01:41:07.487Z,98005.42
2017-11-10T01:41:39.348Z,98012.22
2017-11-10T01:42:10.994Z,98008.82
2017-11-10T01:42:42.671Z,98009.23
2017-11-10T01:43:14.317Z,98007.97
2017-11-10T01:43:46.004Z,98009.67
2017-11-10T01:44:18.569Z,98013.09
2017-11-10T01:44:50.217Z,98008.41
2017-11-10T01:45:21.866Z,98010.59
2017-11-10T01:45:53.515Z,98008.47
2017-11-10T01:46:25.170Z,98011.09
2017-11-10T01:46:56.821Z,98004.75
2017-11-10T01:47:28.615Z,98007.27
2017-11-10T01:48:00.286Z,98006.03
2017-11-10T01:48:37.541Z,98001.37
2017-11-10T01:49:09.190Z,98008.59
2017-11-10T01:49:43.894Z,98001.79
2017-11-10T01:50:15.844Z,98002.63
2017-11-10T01:50:47.672Z,98001.36
2017-11-10T01:51:19.433Z,98002.20
2017-11-10T01:51:51.385Z,97997.08
2017-11-10T01:52:23.218Z,97991.11
2017-11-10T01:52:54.975Z,97993.27
2017-11-10T01:53:26.924Z,97995.39
2017-11-10T01:53:58.593Z,98000.06
2017-11-10T01:54:30.266Z,97995.83
2017-11-10T01:55:01.910Z,97997.95
2017-11-10T01:55:33.558Z,97994.55
2017-11-10T01:56:05.407Z,97993.70
2017-11-10T01:56:37.126Z,97994.55
2017-11-10T01:57:09.032Z,97991.20
2017-11-10T01:57:40.697Z,97992.10
2017-11-10T01:58:12.337Z,97990.41
2017-11-10T01:58:43.991Z,97986.59
2017-11-10T01:59:15.634Z,97988.66
2017-11-10T01:59:47.547Z,97987.00
2017-11-10T02:00:19.369Z,97990.41
2017-11-10T02:00:51.061Z,97995.09
2017-11-10T02:01:22.702Z,97990.78
2017-11-10T02:01:54.353Z,97988.66
2017-11-10T02:02:26.062Z,97992.47
2017-11-10T02:02:57.742Z,97984.80
2017-11-10T02:03:29.397Z,97984.75
2017-11-10T02:04:01.298Z,97989.44
2017-11-10T02:04:32.954Z,97978.78
2017-11-10T02:05:04.603Z,97979.57
2017-11-10T02:05:36.245Z,97978.28
2017-11-10T02:06:07.898Z,97980.41
2017-11-10T02:06:39.814Z,97978.72
2017-11-10T02:07:11.699Z,97975.36
2017-11-10T02:07:43.414Z,97979.57
2017-11-10T02:08:15.166Z,97979.56
2017-11-10T02:08:46.805Z,97978.28
2017-11-10T02:09:18.445Z,97979.20
2017-11-10T02:09:50.090Z,97977.02
2017-11-10T02:10:21.922Z,97976.21
2017-11-10T02:10:53.768Z,97979.64
2017-11-10T02:11:25.514Z,97982.63
2017-11-10T02:11:57.162Z,97983.52
2017-11-10T02:12:28.805Z,97980.55
2017-11-10T02:13:00.450Z,97977.56
2017-11-10T02:13:32.094Z,97982.33
2017-11-10T02:14:03.923Z,97980.13
2017-11-10T02:14:35.672Z,97979.32
2017-11-10T02:15:07.551Z,97976.28
2017-11-10T02:15:39.267Z,97979.63
2017-11-10T02:16:10.918Z,97975.79
2017-11-10T02:16:42.566Z,97974.50
2017-11-10T02:17:14.209Z,97974.95
2017-11-10T02:17:45.854Z,97979.20
2017-11-10T02:18:17.498Z,97984.72
2017-11-10T02:18:49.147Z,97981.69
2017-11-10T02:19:20.794Z,97978.30
2017-11-10T02:19:52.438Z,97979.99
2017-11-10T02:20:24.078Z,97979.15
2017-11-10T02:20:55.721Z,97982.17
2017-11-10T02:21:28.553Z,97982.17
2017-11-10T02:22:00.209Z,97980.89
2017-11-10T02:22:31.850Z,97975.37
2017-11-10T02:23:03.495Z,97979.57
2017-11-10T02:23:35.138Z,97984.31
2017-11-10T02:24:06.786Z,97984.80
2017-11-10T02:24:38.429Z,97980.56
2017-11-10T02:25:10.071Z,97983.55
2017-11-10T02:25:41.749Z,97980.50
2017-11-10T02:26:13.445Z,97980.48
2017-11-10T02:26:45.085Z,97978.77
2017-11-10T02:27:16.731Z,97974.95
2017-11-10T02:27:48.454Z,97977.57
2017-11-10T02:28:20.204Z,97977.58
2017-11-10T02:28:52.154Z,97972.89
2017-11-10T02:29:23.802Z,97975.85
2017-11-10T02:29:55.448Z,97971.17
2017-11-10T02:30:27.094Z,97979.22
2017-11-10T02:30:58.737Z,97968.20
2017-11-10T02:31:30.579Z,97975.37
2017-11-10T02:32:02.231Z,97971.98
2017-11-10T02:32:33.876Z,97971.55
2017-11-10T02:33:05.519Z,97972.45
2017-11-10T02:33:37.162Z,97968.68
2017-11-10T02:34:08.829Z,97969.12
2017-11-10T02:34:40.519Z,97970.39
2017-11-10T02:35:12.471Z,97957.99
2017-11-10T02:35:44.167Z,97966.92
2017-11-10T02:36:16.070Z,97969.91
2017-11-10T02:36:47.721Z,97962.23
2017-11-10T02:37:19.366Z,97970.27
2017-11-10T02:37:51.018Z,97970.33
2017-11-10T02:38:22.662Z,97970.75
2017-11-10T02:38:54.301Z,97969.91
2017-11-10T02:39:28.011Z,97972.09
2017-11-10T02:39:59.705Z,97973.79
2017-11-10T02:40:31.601Z,97966.55
2017-11-10T02:41:03.600Z,97964.86
2017-11-10T02:41:35.251Z,97965.27
2017-11-10T02:42:07.107Z,97965.28
2017-11-10T02:42:39.759Z,97964.86
2017-11-10T02:43:11.446Z,97961.46
2017-11-10T02:43:43.098Z,97964.06
2017-11-10T02:44:14.741Z,97961.45
2017-11-10T02:44:46.389Z,97960.59
2017-11-10T02:45:18.058Z,97959.32
2017-11-10T02:45:49.758Z,97959.69
2017-11-10T02:46:21.405Z,97963.98
2017-11-10T02:46:53.063Z,97957.14
2017-11-10T02:47:24.843Z,97952.48
2017-11-10T02:47:56.494Z,97947.40
2017-11-10T02:48:28.139Z,97957.19
2017-11-10T02:48:59.790Z,97955.48
2017-11-10T02:49:31.433Z,97953.37
2017-11-10T02:50:03.075Z,97951.70
2017-11-10T02:50:34.722Z,97958.05
2017-11-10T02:51:06.603Z,97950.81
2017-11-10T02:51:38.286Z,97943.62
2017-11-10T02:52:09.940Z,97945.28
2017-11-10T02:52:41.590Z,97941.08
2017-11-10T02:53:13.254Z,97945.33
2017-11-10T02:53:44.898Z,97941.02
2017-11-10T02:54:16.550Z,97941.44
2017-11-10T02:54:48.444Z,97942.29
2017-11-10T02:55:20.094Z,97940.16
2017-11-10T02:55:51.742Z,97937.17
2017-11-10T02:56:23.385Z,97931.62
2017-11-10T02:56:55.027Z,97933.78
2017-11-10T02:57:26.674Z,97936.80
2017-11-10T02:57:58.317Z,97936.33
2017-11-10T02:58:29.957Z,97935.52
2017-11-10T02:59:01.886Z,97929.98
2017-11-10T02:59:33.721Z,97928.66
2017-11-10T03:00:05.411Z,97932.48
2017-11-10T03:00:37.058Z,97930.37
2017-11-10T03:01:08.702Z,97929.56
2017-11-10T03:01:40.352Z,97932.06
2017-11-10T03:02:12.041Z,97935.09
2017-11-10T03:02:43.893Z,97932.92
2017-11-10T03:03:15.635Z,97925.25
2017-11-10T03:03:47.584Z,97926.05
2017-11-10T03:04:19.283Z,97925.61
2017-11-10T03:04:50.986Z,97926.03
2017-11-10T03:05:22.630Z,97922.63
2017-11-10T03:05:54.274Z,97920.92
2017-11-10T03:06:26.101Z,97917.51
2017-11-10T03:06:57.762Z,97911.97
2017-11-10T03:07:29.411Z,97920.44
2017-11-10T03:08:01.054Z,97911.06
2017-11-10T03:08:32.698Z,97909.36
2017-11-10T03:09:04.344Z,97914.95
2017-11-10T03:09:35.986Z,97911.13
2017-11-10T03:10:07.636Z,97912.38
2017-11-10T03:10:39.544Z,97905.11
2017-11-10T03:11:11.242Z,97913.68
2017-11-10T03:11:42.890Z,97908.98
2017-11-10T03:12:14.539Z,97904.73
2017-11-10T03:12:46.186Z,97905.53
2017-11-10T03:13:18.061Z,97903.03
2017-11-10T03:13:50.014Z,97900.48
2017-11-10T03:14:21.658Z,97902.17
2017-11-10T03:14:53.334Z,97908.14
2017-11-10T03:15:25.250Z,97905.58
2017-11-10T03:15:56.926Z,97904.30
2017-11-10T03:16:28.645Z,97904.30
2017-11-10T03:17:00.300Z,97901.27
2017-11-10T03:17:31.946Z,97908.93
2017-11-10T03:18:03.590Z,97903.38
2017-11-10T03:18:35.234Z,97907.21
2017-11-10T03:19:06.874Z,97902.95
2017-11-10T03:19:38.520Z,97903.38
2017-11-10T03:20:10.165Z,97905.09
2017-11-10T03:20:41.806Z,97898.69
2017-11-10T03:21:13.446Z,97902.12
2017-11-10T03:21:45.253Z,97902.94
2017-11-10T03:22:17.084Z,97896.94
2017-11-10T03:22:48.843Z,97886.71
2017-11-10T03:23:20.676Z,97893.16
2017-11-10T03:23:52.436Z,97889.31
2017-11-10T03:24:24.384Z,97888.89
2017-11-10T03:24:56.037Z,97890.19
2017-11-10T03:25:27.690Z,97893.17
2017-11-10T03:25:59.333Z,97887.63
2017-11-10T03:26:31.217Z,97894.44
2017-11-10T03:27:02.901Z,97887.69
2017-11-10T03:27:34.851Z,97891.11
2017-11-10T03:28:06.799Z,97888.61
2017-11-10T03:28:38.747Z,97885.62
2017-11-10T03:29:10.393Z,97882.65
2017-11-10T03:29:42.042Z,97884.38
2017-11-10T03:30:13.687Z,97882.22
2017-11-10T03:30:45.335Z,97883.09
2017-11-10T03:31:16.980Z,97874.08
2017-11-10T03:31:48.681Z,97879.25
2017-11-10T03:32:20.526Z,97869.45
2017-11-10T03:32:52.214Z,97869.88
2017-11-10T03:33:23.853Z,97872.45
2017-11-10T03:33:55.494Z,97864.35
2017-11-10T03:34:27.138Z,97872.07
2017-11-10T03:34:58.782Z,97872.91
2017-11-10T03:35:30.422Z,97870.80
2017-11-10T03:36:02.070Z,97865.48
2017-11-10T03:36:33.722Z,97870.24
2017-11-10T03:37:05.374Z,97872.22
2017-11-10T03:37:37.185Z,97875.56
2017-11-10T03:38:09.164Z,97865.99
2017-11-10T03:38:40.810Z,97871.32
2017-11-10T03:39:12.452Z,97877.11
2017-11-10T03:39:44.097Z,97870.95
2017-11-10T03:40:15.791Z,97873.95
2017-11-10T03:40:47.442Z,97867.11
2017-11-10T03:41:19.381Z,97870.83
2017-11-10T03:41:51.222Z,97868.19
2017-11-10T03:42:22.973Z,97872.27
2017-11-10T03:42:54.622Z,97871.56
2017-11-10T03:43:26.262Z,97861.70
2017-11-10T03:43:57.906Z,97860.97
2017-11-10T03:44:29.545Z,97864.84
2017-11-10T03:45:01.191Z,97858.44
2017-11-10T03:45:32.839Z,97864.91
2017-11-10T03:46:04.482Z,97861.22
2017-11-10T03:46:36.416Z,97860.59
2017-11-10T03:47:08.066Z,97868.02
2017-11-10T03:47:39.763Z,97859.33
2017-11-10T03:48:11.649Z,97862.60
2017-11-10T03:48:43.293Z,97862.91
2017-11-10T03:49:14.941Z,97859.23
2017-11-10T03:49:46.591Z,97862.92
2017-11-10T03:50:18.266Z,97867.47
2017-11-10T03:50:49.915Z,97866.07
2017-11-10T03:51:21.744Z,97861.37
2017-11-10T03:51:53.395Z,97853.69
2017-11-10T03:52:25.050Z,97858.73
2017-11-10T03:52:56.748Z,97856.11
2017-11-10T03:53:28.397Z,97858.24
2017-11-10T03:54:00.286Z,97858.22
2017-11-10T03:54:31.965Z,97855.19
2017-11-10T03:55:03.859Z,97855.55
2017-11-10T03:55:35.506Z,97856.33
2017-11-10T03:56:07.149Z,97852.91
2017-11-10T03:56:38.842Z,97851.20
2017-11-10T03:57:10.490Z,97852.01
2017-11-10T03:57:42.134Z,97854.92
2017-11-10T03:58:13.786Z,97853.56
2017-11-10T03:58:45.432Z,97852.20
2017-11-10T03:59:17.079Z,97848.22
2017-11-10T03:59:48.723Z,97851.08
2017-11-10T04:00:20.367Z,97852.33
2017-11-10T04:00:52.015Z,97856.02
2017-11-10T04:01:23.655Z,97855.91
2017-11-10T04:01:55.297Z,97854.96
2017-11-10T04:02:26.946Z,97851.05
2017-11-10T04:02:58.593Z,97855.69
2017-11-10T04:03:30.486Z,97850.92
2017-11-10T04:04:02.441Z,97850.41
2017-11-10T04:04:34.390Z,97849.06
2017-11-10T04:05:06.339Z,97843.88
2017-11-10T04:05:37.981Z,97850.63
2017-11-10T04:06:09.630Z,97847.17
2017-11-10T04:06:41.274Z,97851.36
2017-11-10T04:07:12.919Z,97845.78
2017-11-10T04:07:44.570Z,97846.18
2017-11-10T04:08:16.216Z,97846.14
2017-11-10T04:08:48.140Z,97847.84
2017-11-10T04:09:19.800Z,97845.19
2017-11-10T04:09:51.450Z,97842.63
2017-11-10T04:10:23.093Z,97844.30
2017-11-10T04:10:54.734Z,97840.45
2017-11-10T04:11:26.375Z,97842.62
2017-11-10T04:11:58.013Z,97843.49
2017-11-10T04:12:29.654Z,97844.70
2017-11-10T04:13:01.293Z,97842.61
2017-11-10T04:13:32.982Z,97842.95
2017-11-10T04:14:04.869Z,97846.70
2017-11-10T04:14:36.518Z,97843.20
2017-11-10T04:15:08.376Z,97840.66
2017-11-10T04:15:40.021Z,97845.41
2017-11-10T04:16:11.666Z,97840.73
2017-11-10T04:16:43.314Z,97842.84
2017-11-10T04:17:14.959Z,97841.08
2017-11-10T04:17:46.606Z,97842.77
2017-11-10T04:18:18.255Z,97846.68
2017-11-10T04:18:49.902Z,97842.93
2017-11-10T04:19:21.546Z,97836.54
2017-11-10T04:19:53.195Z,97841.66
2017-11-10T04:20:24.849Z,97844.98
2017-11-10T04:20:56.547Z,97842.77
2017-11-10T04:21:28.527Z,97836.33
2017-11-10T04:22:00.171Z,97835.02
2017-11-10T04:22:32.004Z,97835.44
2017-11-10T04:23:03.650Z,97836.37
2017-11-10T04:23:35.299Z,97830.33
2017-11-10T04:24:06.944Z,97830.83
2017-11-10T04:24:38.599Z,97834.26
2017-11-10T04:25:10.268Z,97831.71
2017-11-10T04:25:41.917Z,97825.37
2017-11-10T04:26:13.792Z,97825.02
2017-11-10T04:26:45.443Z,97828.43
2017-11-10T04:27:17.089Z,97823.73
2017-11-10T04:27:48.739Z,97820.03
2017-11-10T04:28:20.429Z,97817.92
2017-11-10T04:28:52.138Z,97816.79
2017-11-10T04:29:24.018Z,97819.70
2017-11-10T04:29:55.665Z,97819.78
2017-11-10T04:30:27.310Z,97813.53
2017-11-10T04:30:58.953Z,97813.19
2017-11-10T04:31:30.784Z,97815.38
2017-11-10T04:32:02.478Z,97813.75
2017-11-10T04:32:34.134Z,97810.27
2017-11-10T04:33:05.821Z,97811.55
2017-11-10T04:33:37.498Z,97809.84
2017-11-10T04:34:09.142Z,97809.86
2017-11-10T04:34:40.785Z,97812.06
2017-11-10T04:35:12.425Z,97806.09
2017-11-10T04:35:44.086Z,97805.31
2017-11-10T04:36:15.800Z,97804.05
2017-11-10T04:36:47.466Z,97806.66
2017-11-10T04:37:19.115Z,97808.86
2017-11-10T04:37:50.757Z,97806.34
2017-11-10T04:38:22.551Z,97804.20
2017-11-10T04:38:54.206Z,97805.19
2017-11-10T04:39:25.858Z,97803.57
2017-11-10T04:39:57.778Z,97799.80
2017-11-10T04:40:29.426Z,97799.89
2017-11-10T04:41:01.090Z,97793.14
2017-11-10T04:41:32.733Z,97794.41
2017-11-10T04:42:04.375Z,97796.14
2017-11-10T04:42:36.027Z,97794.56
2017-11-10T04:43:07.674Z,97795.36
2017-11-10T04:43:39.327Z,97790.72
2017-11-10T04:44:10.976Z,97796.76
2017-11-10T04:44:42.861Z,97792.87
2017-11-10T04:45:14.550Z,97793.72
2017-11-10T04:45:46.452Z,97795.06
2017-11-10T04:46:18.283Z,97790.02
2017-11-10T04:46:50.043Z,97793.92
2017-11-10T04:47:21.992Z,97794.78
2017-11-10T04:47:53.941Z,97789.73
2017-11-10T04:48:25.890Z,97791.46
2017-11-10T04:48:57.840Z,97792.30
2017-11-10T04:49:29.494Z,97797.00
2017-11-10T04:50:01.142Z,97797.05
2017-11-10T04:50:32.786Z,97799.67
2017-11-10T04:51:04.431Z,97797.58
2017-11-10T04:51:36.118Z,97797.58
2017-11-10T04:52:07.943Z,97799.34
2017-11-10T04:52:39.589Z,97797.70
2017-11-10T04:53:11.282Z,97795.10
2017-11-10T04:53:43.113Z,97798.58
2017-11-10T04:54:14.873Z,97800.31
2017-11-10T04:54:46.522Z,97792.69
2017-11-10T04:55:18.171Z,97796.16
2017-11-10T04:55:50.105Z,97788.91
2017-11-10T04:56:22.055Z,97790.63
2017-11-10T04:56:53.712Z,97791.48
2017-11-10T04:57:25.357Z,97795.78
2017-11-10T04:57:57.029Z,97792.36
2017-11-10T04:58:28.682Z,97794.09
2017-11-10T04:59:00.331Z,97792.36
2017-11-10T04:59:32.171Z,97795.82
2017-11-10T05:00:04.055Z,97791.16
2017-11-10T05:00:35.804Z,97788.66
2017-11-10T05:01:07.446Z,97790.37
2017-11-10T05:01:39.396Z,97790.37
2017-11-10T05:02:11.239Z,97792.94
2017-11-10T05:02:42.988Z,97791.28
2017-11-10T05:03:14.683Z,97788.31
2017-11-10T05:03:46.533Z,97788.73
2017-11-10T05:04:18.238Z,97790.87
2017-11-10T05:04:49.881Z,97787.94
2017-11-10T05:05:21.533Z,97787.10
2017-11-10T05:05:53.452Z,97782.85
2017-11-10T05:06:25.274Z,97785.39
2017-11-10T05:06:57.044Z,97784.12
2017-11-10T05:07:28.875Z,97784.92
2017-11-10T05:08:00.636Z,97786.66
2017-11-10T05:08:32.290Z,97775.61
2017-11-10T05:09:03.935Z,97779.02
2017-11-10T05:09:35.622Z,97782.01
2017-11-10T05:10:07.282Z,97779.08
2017-11-10T05:10:38.926Z,97777.80
2017-11-10T05:11:10.794Z,97780.31
2017-11-10T05:11:42.439Z,97773.13
2017-11-10T05:12:14.099Z,97776.52
2017-11-10T05:12:45.775Z,97781.63
2017-11-10T05:13:17.418Z,97774.83
2017-11-10T05:13:49.310Z,97778.66
2017-11-10T05:14:20.963Z,97775.63
2017-11-10T05:14:52.606Z,97776.05
2017-11-10T05:15:24.251Z,97779.89
2017-11-10T05:15:56.061Z,97773.91
2017-11-10T05:16:27.829Z,97776.45
2017-11-10T05:16:59.479Z,97776.45
2017-11-10T05:17:31.130Z,97775.56
2017-11-10T05:18:02.774Z,97779.39
2017-11-10T05:18:34.668Z,97777.67
2017-11-10T05:19:06.343Z,97782.34
2017-11-10T05:19:37.994Z,97780.64
2017-11-10T05:20:09.638Z,97781.42
2017-11-10T05:20:41.284Z,97775.41
2017-11-10T05:21:12.934Z,97779.25
2017-11-10T05:21:44.573Z,97774.98
2017-11-10T05:22:16.223Z,97776.27
2017-11-10T05:22:47.867Z,97775.83
2017-11-10T05:23:19.641Z,97775.40
2017-11-10T05:23:51.334Z,97776.24
2017-11-10T05:24:22.978Z,97775.39
2017-11-10T05:24:54.622Z,97780.91
2017-11-10T05:25:26.270Z,97775.77
2017-11-10T05:25:57.913Z,97779.22
2017-11-10T05:26:29.589Z,97785.16
2017-11-10T05:27:01.278Z,97778.28
2017-11-10T05:27:32.958Z,97776.20
2017-11-10T05:28:04.812Z,97781.25
2017-11-10T05:28:36.467Z,97774.45
2017-11-10T05:29:08.157Z,97773.58
2017-11-10T05:29:39.807Z,97777.86
2017-11-10T05:30:11.657Z,97779.96
2017-11-10T05:30:43.997Z,97773.58
2017-11-10T05:31:15.678Z,97779.05
2017-11-10T05:31:47.323Z,97772.67
2017-11-10T05:32:18.977Z,97780.80
2017-11-10T05:32:50.697Z,97770.98
2017-11-10T05:33:22.523Z,97765.00
2017-11-10T05:33:54.397Z,97769.69
2017-11-10T05:34:26.110Z,97776.52
2017-11-10T05:34:58.058Z,97770.17
2017-11-10T05:35:29.743Z,97771.88
2017-11-10T05:36:01.393Z,97768.89
2017-11-10T05:36:33.262Z,97773.16
2017-11-10T05:37:05.110Z,97768.06
2017-11-10T05:37:36.882Z,97767.19
2017-11-10T05:38:08.549Z,97767.61
2017-11-10T05:38:40.473Z,97764.58
2017-11-10T05:39:12.134Z,97768.04
2017-11-10T05:39:43.811Z,97758.25
2017-11-10T05:40:15.522Z,97762.94
2017-11-10T05:40:47.186Z,97765.49
2017-11-10T05:41:18.858Z,97761.59
2017-11-10T05:41:50.632Z,97763.30
2017-11-10T05:42:22.582Z,97764.14
2017-11-10T05:42:54.260Z,97763.30
2017-11-10T05:43:25.906Z,97760.73
2017-11-10T05:43:57.554Z,97764.08
2017-11-10T05:44:29.198Z,97761.96
2017-11-10T05:45:00.940Z,97757.70
2017-11-10T05:45:32.662Z,97757.70
2017-11-10T05:46:04.330Z,97759.45
2017-11-10T05:46:36.206Z,97754.78
2017-11-10T05:47:07.972Z,97759.89
2017-11-10T05:47:39.641Z,97754.80
2017-11-10T05:48:11.286Z,97765.86
2017-11-10T05:48:42.930Z,97764.14
2017-11-10T05:49:14.569Z,97757.70
2017-11-10T05:49:46.372Z,97762.02
2017-11-10T05:50:18.057Z,97757.40
2017-11-10T05:50:49.773Z,97757.41
2017-11-10T05:51:21.446Z,97758.69
2017-11-10T05:51:53.166Z,97764.64
2017-11-10T05:52:24.855Z,97761.66
2017-11-10T05:52:56.498Z,97762.44
2017-11-10T05:53:28.141Z,97766.65
2017-11-10T05:53:59.930Z,97764.56
2017-11-10T05:54:31.607Z,97769.67
2017-11-10T05:55:03.433Z,97763.72
2017-11-10T05:55:35.114Z,97769.26
2017-11-10T05:56:06.806Z,97771.81
2017-11-10T05:56:38.489Z,97768.83
2017-11-10T05:57:10.203Z,97767.55
2017-11-10T05:57:42.038Z,97760.73
2017-11-10T05:58:13.712Z,97765.80
2017-11-10T05:58:45.414Z,97766.22
2017-11-10T05:59:17.093Z,97770.09
2017-11-10T05:59:48.763Z,97770.91
2017-11-10T06:00:20.554Z,97771.75
2017-11-10T06:00:52.207Z,97771.33
2017-11-10T06:01:23.851Z,97771.80
2017-11-10T06:01:55.493Z,97772.22
2017-11-10T06:02:27.143Z,97771.83
2017-11-10T06:02:58.786Z,97769.27
2017-11-10T06:03:30.466Z,97768.84
2017-11-10T06:04:02.332Z,97762.46
2017-11-10T06:04:33.996Z,97771.39
2017-11-10T06:05:05.804Z,97771.40
2017-11-10T06:05:37.588Z,97764.22
2017-11-10T06:06:09.426Z,97765.92
2017-11-10T06:06:41.180Z,97764.64
2017-11-10T06:07:12.831Z,97764.22
2017-11-10T06:07:44.483Z,97756.50
2017-11-10T06:08:16.173Z,97767.99
2017-11-10T06:08:48.056Z,97765.50
2017-11-10T06:09:20.003Z,97765.49
2017-11-10T06:09:51.655Z,97764.22
2017-11-10T06:10:23.302Z,97757.05
2017-11-10T06:10:54.948Z,97765.94
2017-11-10T06:11:26.591Z,97765.92
2017-11-10T06:11:58.242Z,97765.88
2017-11-10T06:12:29.889Z,97768.84